Airfield :
LOGIN :

Register | Disclaimer

   EN    FR    IT 

 










Legend :    VFR   Marginal VFR   IFR   Intensive IFR   Very Intensive IFR
Visi :
Ceiling :
>= 8 km
>= 3000ft
5 to 8 km
1000 to 3000 ft
1500m to 5 km
500 to 1000 ft
800 to 1500m
200 to 500 ft
< 800m
< 200 ft
Symbols :   Thunderstorms  Fog  Heavy snow  Heavy precipitations  Wind > 20 kt
SIGMETs :     Misc.  Thunderstorms  Icing  Turbulence  Mountain Waves  Volcanic Ashes







- Airport Elevation : 87 ft
- IATA code : FSC
- Download approach charts


LFKF - Figari

CURRENT METAR :
  • 172230Z AUTO 22010KT 9999 FEW025/// SCT044/// BKN050/// ///TCU 10/08 Q1014

EXPIRED METARs :
  • 172200Z AUTO 22008KT 190V250 9999 FEW028 BKN042 BKN054 11/08 Q1014
  • 172130Z AUTO 24008KT 9999 FEW049 09/08 Q1014 TEMPO 28015G25KT SHRA BKN015TCU BKN040
  • 172100Z AUTO 24007KT 9999 FEW049 SCT074 10/08 Q1014 TEMPO 28015G25KT SHRA BKN015TCU BKN040
  • 172030Z AUTO 23008KT 9999 FEW049 10/08 Q1014 TEMPO 28015G25KT SHRA BKN015TCU BKN040
  • 172000Z AUTO 24008KT 9999 FEW049 10/08 Q1014 TEMPO 28015G25KT SHRA BKN015TCU BKN040

TAF TAF LFKF
Valid from the 17 at 15:00 until the 18 at 15:00 UTC


171400Z 1715/1815 25012KT 9999 SCT030 BKN050
TEMPO 1715/1801 28015G25KT 7000 SHRA BKN015TCU BKN040
No reported NOTAMs for that airfield.
1 SIGMET reported for the Marseille FIR (LFMM) :
 
Severe mountain waves
LFMM SIGMET 1 VALID 180000/180400 LFPW
LFMM MARSEILLE FIR/UIR SEV MTW FCST WI N4315 E00945 - N4115 E00945 - N4115 E00900 - N4300 E00845 - N4315 E00945 SFC/FL200 STNR INTSF=



MET'MAP, your aeronautical weather chart ! - Copyright ORBIFLY December 2007 - Disclaimer

ORBIFLY MET'MAP TEAM :

Programming & Development : Alexandra Zaïnal
Concept & Development : Baudouin d'Aumeries
Co-Development & Prog : Marc-Olivier Méhu
Technical & hardware support : Manuel Goepfert

Contact : metmap@orbifly.com




SOURCES & CREDITS :

   NOAA